Happy Camp, California
Current Conditions -  °F | °C
As of 7:56 AM on Sunday 21 Dec 2014 (Local Time) from KCEC Reporting Station
Haze Haze  
Wind Chill: 58°   Ceiling: 300
Heat Index: 58°   Visibility: 4mi
Dew Point: 58°   Wind: 9mph
Humidity: 100%   Direction: 220°SW
Pressure: 30.2"   Gusts: NA
Location:  41.79°N, 123.38°W
Report Text: KCEC 211556Z AUTO 22008KT 4SM BR OVC003 14/14 A3020 RMK AO2 RAB14E26B40E55 SLP227 P0000 T01440144
Loading
Personal Weather Stations






























Interactive Weather Map New forecast layout! Learn more

10-Day Weather Forecast

Advertisements
Track Severe Weather on mobile